createdAt,value
2019-05-11T00:03:20.853Z,100512.30
2019-05-11T00:07:22.981Z,100501.79
2019-05-11T00:11:25.244Z,100510.11
2019-05-11T00:15:27.541Z,100511.59
2019-05-11T00:19:30.890Z,100517.53
2019-05-11T00:23:32.991Z,100507.23
2019-05-11T00:27:35.165Z,100516.08
2019-05-11T00:31:37.374Z,100523.45
2019-05-11T00:35:39.496Z,100513.42
2019-05-11T00:39:41.658Z,100519.11
2019-05-11T00:43:43.934Z,100527.09
2019-05-11T00:47:46.316Z,100529.14
2019-05-11T00:51:48.622Z,100534.47
2019-05-11T00:55:51.051Z,100544.41
2019-05-11T00:59:53.297Z,100540.27
2019-05-11T01:03:55.434Z,100551.05
2019-05-11T01:07:58.494Z,100552.86
2019-05-11T01:12:00.678Z,100547.28
2019-05-11T01:16:04.572Z,100553.32
2019-05-11T01:20:07.154Z,100544.38
2019-05-11T01:24:09.466Z,100547.03
2019-05-11T01:28:13.116Z,100533.72
2019-05-11T01:32:15.432Z,100532.63
2019-05-11T01:36:17.759Z,100530.92
2019-05-11T01:40:20.003Z,100538.43
2019-05-11T01:44:22.536Z,100547.16
2019-05-11T01:48:24.655Z,100544.84
2019-05-11T01:52:27.033Z,100540.98
2019-05-11T01:56:29.219Z,100542.17
2019-05-11T02:00:32.480Z,100540.50
2019-05-11T02:04:34.630Z,100543.05
2019-05-11T02:08:36.962Z,100540.98
2019-05-11T02:12:39.004Z,100536.00
2019-05-11T02:16:41.618Z,100529.48
2019-05-11T02:20:43.860Z,100526.70
2019-05-11T02:24:46.255Z,100523.18
2019-05-11T02:28:48.497Z,100527.31
2019-05-11T02:32:50.832Z,100523.42
2019-05-11T02:36:53.104Z,100521.87
2019-05-11T02:40:55.312Z,100518.86
2019-05-11T02:44:57.590Z,100521.77
2019-05-11T02:48:59.828Z,100518.37
2019-05-11T02:53:02.386Z,100512.08
2019-05-11T02:57:04.714Z,100515.47
2019-05-11T03:01:06.892Z,100504.61
2019-05-11T03:05:09.376Z,100504.36
2019-05-11T03:09:11.523Z,100503.63
2019-05-11T03:13:14.323Z,100506.87
2019-05-11T03:17:20.616Z,100513.77
2019-05-11T03:21:22.914Z,100521.77
2019-05-11T03:25:25.354Z,100518.24
2019-05-11T03:29:27.777Z,100518.24
2019-05-11T03:33:30.070Z,100529.63
2019-05-11T03:37:32.455Z,100546.68
2019-05-11T03:41:34.656Z,100545.86
2019-05-11T03:45:37.166Z,100544.03
2019-05-11T03:49:39.574Z,100548.63
2019-05-11T03:53:41.860Z,100549.46
2019-05-11T03:57:44.020Z,100562.53
2019-05-11T04:01:46.260Z,100554.30
2019-05-11T04:05:49.499Z,100550.91
2019-05-11T04:09:51.715Z,100546.43
2019-05-11T04:13:54.055Z,100545.97
2019-05-11T04:17:56.370Z,100541.23
2019-05-11T04:21:58.542Z,100543.89
2019-05-11T04:26:00.943Z,100547.05
2019-05-11T04:30:03.020Z,100549.70
2019-05-11T04:34:05.233Z,100547.30
2019-05-11T04:38:07.443Z,100556.02
2019-05-11T04:42:09.766Z,100552.27
2019-05-11T04:46:12.033Z,100555.16
2019-05-11T04:50:14.774Z,100563.51
2019-05-11T04:54:17.054Z,100555.86
2019-05-11T04:58:19.271Z,100559.72
2019-05-11T05:02:21.853Z,100553.86
2019-05-11T05:06:24.771Z,100565.70
2019-05-11T05:10:27.011Z,100573.23
2019-05-11T05:14:29.285Z,100580.70
2019-05-11T05:18:31.922Z,100586.64
2019-05-11T05:22:34.216Z,100579.50
2019-05-11T05:26:36.461Z,100581.67
2019-05-11T05:30:38.823Z,100563.81
2019-05-11T05:34:40.922Z,100568.78
2019-05-11T05:38:43.142Z,100574.25
2019-05-11T05:42:45.287Z,100575.41
2019-05-11T05:46:47.618Z,100578.05
2019-05-11T05:50:49.725Z,100566.09
2019-05-11T05:54:51.969Z,100572.51
2019-05-11T05:58:54.201Z,100572.43
2019-05-11T06:02:56.402Z,100573.73
2019-05-11T06:06:58.482Z,100575.69
2019-05-11T06:11:00.766Z,100569.77
2019-05-11T06:15:04.044Z,100568.02
2019-05-11T06:19:06.648Z,100570.95
2019-05-11T06:23:08.897Z,100573.84
2019-05-11T06:27:12.051Z,100577.09
2019-05-11T06:31:14.198Z,100584.44
2019-05-11T06:35:16.720Z,100583.18
2019-05-11T06:39:19.179Z,100589.29
2019-05-11T06:43:21.491Z,100581.03
2019-05-11T06:47:23.653Z,100573.84
2019-05-11T06:51:27.323Z,100565.31
2019-05-11T06:55:29.664Z,100565.50
2019-05-11T06:59:31.933Z,100568.36
2019-05-11T07:03:34.421Z,100568.84
2019-05-11T07:07:47.025Z,100568.36
2019-05-11T07:11:42.548Z,100570.36
2019-05-11T07:15:44.781Z,100567.64
2019-05-11T07:19:47.701Z,100561.63
2019-05-11T07:23:50.140Z,100555.45
2019-05-11T07:27:52.631Z,100551.88
2019-05-11T07:31:54.823Z,100548.36
2019-05-11T07:35:58.274Z,100540.72
2019-05-11T07:40:00.587Z,100537.63
2019-05-11T07:44:04.182Z,100540.77
2019-05-11T07:48:08.037Z,100541.15
2019-05-11T07:52:10.297Z,100531.95
2019-05-11T07:56:12.462Z,100523.82
2019-05-11T08:00:14.742Z,100516.23
2019-05-11T08:04:18.300Z,100520.19
2019-05-11T08:08:20.763Z,100515.52
2019-05-11T08:12:23.163Z,100516.84
2019-05-11T08:16:28.235Z,100518.73
2019-05-11T08:20:29.653Z,100521.73
2019-05-11T08:24:32.003Z,100516.08
2019-05-11T08:28:34.317Z,100527.36
2019-05-11T08:32:38.705Z,100527.24
2019-05-11T08:36:40.824Z,100520.11
2019-05-11T08:40:43.163Z,100513.97
2019-05-11T08:44:45.516Z,100509.83
2019-05-11T08:48:47.994Z,100503.55
2019-05-11T08:52:50.474Z,100484.83
2019-05-11T08:56:53.557Z,100492.20
2019-05-11T09:00:58.043Z,100495.69
2019-05-11T09:04:59.642Z,100481.73
2019-05-11T09:09:01.988Z,100483.55
2019-05-11T09:13:04.390Z,100483.59
2019-05-11T09:17:07.858Z,100484.50
2019-05-11T09:21:11.413Z,100484.31
2019-05-11T09:25:14.050Z,100480.81
2019-05-11T09:29:17.994Z,100476.05
2019-05-11T09:33:20.845Z,100479.98
2019-05-11T09:37:22.997Z,100478.30
2019-05-11T09:41:25.250Z,100480.41
2019-05-11T09:45:27.907Z,100485.74
2019-05-11T09:49:43.743Z,100486.17
2019-05-11T09:53:38.666Z,100488.09
2019-05-11T09:57:40.385Z,100484.78
2019-05-11T10:01:42.526Z,100488.81
2019-05-11T10:05:45.057Z,100479.49
2019-05-11T10:09:47.875Z,100471.75
2019-05-11T10:13:50.470Z,100479.87
2019-05-11T10:17:52.496Z,100469.26
2019-05-11T10:21:55.126Z,100457.55
2019-05-11T10:25:58.590Z,100448.16
2019-05-11T10:30:02.026Z,100441.58
2019-05-11T10:34:05.501Z,100424.52
2019-05-11T10:38:09.069Z,100417.63
2019-05-11T10:42:11.586Z,100407.63
2019-05-11T10:46:19.526Z,100409.87
2019-05-11T10:50:18.848Z,100420.36
2019-05-11T10:54:21.315Z,100429.17
2019-05-11T10:58:23.481Z,100431.50
2019-05-11T11:02:27.691Z,100434.31
2019-05-11T11:06:29.569Z,100430.88
2019-05-11T11:10:31.801Z,100427.91
2019-05-11T11:14:34.131Z,100426.94
2019-05-11T11:18:38.110Z,100427.97
2019-05-11T11:22:44.036Z,100424.61
2019-05-11T11:26:44.920Z,100431.13
2019-05-11T11:30:48.018Z,100429.48
2019-05-11T11:34:50.295Z,100423.50
2019-05-11T11:38:52.548Z,100417.37
2019-05-11T11:42:54.897Z,100415.05
2019-05-11T11:46:59.105Z,100410.52
2019-05-11T11:51:01.058Z,100408.97
2019-05-11T11:55:03.007Z,100411.51
2019-05-11T11:59:05.324Z,100405.66
2019-05-11T12:03:08.144Z,100397.19
2019-05-11T12:07:10.485Z,100399.43
2019-05-11T12:11:12.540Z,100392.19
2019-05-11T12:15:14.937Z,100382.61
2019-05-11T12:19:18.697Z,100378.91
2019-05-11T12:23:21.450Z,100382.13
2019-05-11T12:27:23.482Z,100372.54
2019-05-11T12:31:25.789Z,100368.42
2019-05-11T12:35:29.362Z,100364.94
2019-05-11T12:39:31.585Z,100349.61
2019-05-11T12:43:33.750Z,100346.34
2019-05-11T12:47:38.360Z,100340.56
2019-05-11T12:51:40.978Z,100333.77
2019-05-11T12:55:43.199Z,100335.84
2019-05-11T12:59:45.364Z,100329.36
2019-05-11T13:03:49.341Z,100316.94
2019-05-11T13:07:51.583Z,100314.92
2019-05-11T13:11:53.740Z,100325.42
2019-05-11T13:15:55.797Z,100325.00
2019-05-11T13:19:58.750Z,100313.56
2019-05-11T13:24:02.348Z,100319.81
2019-05-11T13:28:05.912Z,100316.27
2019-05-11T13:32:10.282Z,100325.47
2019-05-11T13:36:12.630Z,100313.52
2019-05-11T13:40:15.403Z,100309.54
2019-05-11T13:44:18.595Z,100314.55
2019-05-11T13:48:21.443Z,100311.57
2019-05-11T13:52:28.538Z,100311.97
2019-05-11T13:56:32.389Z,100315.05
2019-05-11T14:00:34.830Z,100312.13
2019-05-11T14:04:38.644Z,100313.52
2019-05-11T14:08:41.257Z,100316.94
2019-05-11T14:12:43.835Z,100314.98
2019-05-11T14:16:48.427Z,100312.54
2019-05-11T14:20:52.052Z,100315.00
2019-05-11T14:24:54.483Z,100310.13
2019-05-11T14:28:58.290Z,100304.63
2019-05-11T14:33:00.473Z,100289.52
2019-05-11T14:37:02.927Z,100289.75
2019-05-11T14:41:07.578Z,100289.48
2019-05-11T14:45:09.326Z,100284.17
2019-05-11T14:49:11.378Z,100279.12
2019-05-11T14:53:13.694Z,100286.02
2019-05-11T14:57:18.446Z,100285.30
2019-05-11T15:01:19.945Z,100291.10
2019-05-11T15:05:22.717Z,100287.38
2019-05-11T15:09:24.862Z,100292.96
2019-05-11T15:13:28.807Z,100293.45
2019-05-11T15:17:31.133Z,100286.73
2019-05-11T15:21:33.529Z,100289.70
2019-05-11T15:25:37.702Z,100277.95
2019-05-11T15:29:39.732Z,100274.56
2019-05-11T15:33:41.945Z,100267.20
2019-05-11T15:37:44.232Z,100258.82
2019-05-11T15:41:47.984Z,100256.44
2019-05-11T15:45:50.606Z,100257.45
2019-05-11T15:49:54.538Z,100250.83
2019-05-11T15:53:58.678Z,100249.50
2019-05-11T15:58:01.227Z,100241.77
2019-05-11T16:02:03.689Z,100245.48
2019-05-11T16:06:07.873Z,100249.39
2019-05-11T16:10:11.636Z,100240.33
2019-05-11T16:14:15.495Z,100234.23
2019-05-11T16:18:18.910Z,100230.16
2019-05-11T16:22:21.410Z,100216.04
2019-05-11T16:26:23.690Z,100212.48
2019-05-11T16:30:25.764Z,100226.73
2019-05-11T16:34:28.179Z,100217.86
2019-05-11T16:38:30.800Z,100227.02
2019-05-11T16:42:33.850Z,100221.47
2019-05-11T16:46:40.028Z,100216.00
2019-05-11T16:50:44.280Z,100214.11
2019-05-11T16:54:47.804Z,100209.38
2019-05-11T16:58:50.564Z,100211.66
2019-05-11T17:02:57.705Z,100204.29
2019-05-11T17:06:59.738Z,100202.75
2019-05-11T17:11:01.964Z,100195.52
2019-05-11T17:15:04.354Z,100188.77
2019-05-11T17:19:07.897Z,100190.23
2019-05-11T17:23:10.391Z,100193.42
2019-05-11T17:27:12.564Z,100192.91
2019-05-11T17:31:18.597Z,100190.75
2019-05-11T17:35:23.490Z,100187.56
2019-05-11T17:39:28.176Z,100185.91
2019-05-11T17:43:32.087Z,100175.06
2019-05-11T17:47:34.958Z,100167.70
2019-05-11T17:51:38.432Z,100170.50
2019-05-11T17:55:42.610Z,100152.81
2019-05-11T17:59:47.697Z,100152.94
2019-05-11T18:03:53.705Z,100147.05
2019-05-11T18:07:57.994Z,100150.36
2019-05-11T18:12:00.405Z,100146.28
2019-05-11T18:16:09.694Z,100141.20
2019-05-11T18:20:17.931Z,100137.28
2019-05-11T18:24:28.355Z,100129.44
2019-05-11T18:28:31.142Z,100126.20
2019-05-11T18:32:33.260Z,100117.00
2019-05-11T18:36:35.491Z,100117.36
2019-05-11T18:40:38.170Z,100118.13
2019-05-11T18:44:40.551Z,100117.28
2019-05-11T18:48:42.704Z,100118.13
2019-05-11T18:52:44.935Z,100111.13
2019-05-11T18:56:48.858Z,100107.25
2019-05-11T19:00:51.079Z,100108.52
2019-05-11T19:04:54.103Z,100105.84
2019-05-11T19:08:58.107Z,100100.31
2019-05-11T19:13:00.412Z,100105.61
2019-05-11T19:17:02.879Z,100100.88
2019-05-11T19:21:05.571Z,100094.86
2019-05-11T19:25:18.240Z,100098.14
2019-05-11T19:29:21.714Z,100101.45
2019-05-11T19:33:24.033Z,100098.58
2019-05-11T19:37:27.860Z,100101.73
2019-05-11T19:41:30.604Z,100101.25
2019-05-11T19:45:32.800Z,100098.95
2019-05-11T19:49:35.303Z,100099.27
2019-05-11T19:53:38.610Z,100089.81
2019-05-11T19:57:41.166Z,100092.31
2019-05-11T20:01:44.748Z,100090.66
2019-05-11T20:05:48.544Z,100078.66
2019-05-11T20:09:51.987Z,100084.96
2019-05-11T20:13:54.214Z,100083.42
2019-05-11T20:17:58.465Z,100088.89
2019-05-11T20:22:00.510Z,100085.17
2019-05-11T20:26:02.952Z,100076.77
2019-05-11T20:30:05.448Z,100073.70
2019-05-11T20:34:07.713Z,100070.30
2019-05-11T20:38:10.133Z,100072.64
2019-05-11T20:42:12.184Z,100075.31
2019-05-11T20:46:14.389Z,100071.64
2019-05-11T20:50:18.404Z,100070.67
2019-05-11T20:54:20.470Z,100071.52
2019-05-11T20:58:22.633Z,100070.87
2019-05-11T21:02:24.892Z,100061.17
2019-05-11T21:06:29.382Z,100069.53
2019-05-11T21:10:31.069Z,100080.08
2019-05-11T21:14:33.451Z,100082.46
2019-05-11T21:18:38.005Z,100083.80
2019-05-11T21:22:40.744Z,100081.94
2019-05-11T21:26:43.257Z,100095.64
2019-05-11T21:30:47.925Z,100094.30
2019-05-11T21:34:49.317Z,100102.67
2019-05-11T21:38:51.691Z,100098.51
2019-05-11T21:42:54.009Z,100102.02
2019-05-11T21:46:56.158Z,100104.69
2019-05-11T21:50:59.934Z,100119.00
2019-05-11T21:55:02.187Z,100117.47
2019-05-11T21:59:04.382Z,100114.47
2019-05-11T22:03:09.988Z,100108.90
2019-05-11T22:07:10.922Z,100114.47
2019-05-11T22:11:14.254Z,100123.28
2019-05-11T22:15:18.037Z,100123.65
2019-05-11T22:19:20.232Z,100137.47
2019-05-11T22:23:22.871Z,100137.14
2019-05-11T22:27:24.925Z,100140.98
2019-05-11T22:31:27.996Z,100140.14
2019-05-11T22:35:30.395Z,100148.30
2019-05-11T22:39:32.744Z,100147.86
2019-05-11T22:43:34.849Z,100158.68
2019-05-11T22:47:39.262Z,100162.47
2019-05-11T22:51:40.950Z,100159.80
2019-05-11T22:55:43.161Z,100164.94
2019-05-11T22:59:45.529Z,100172.42
2019-05-11T23:03:47.986Z,100175.94
2019-05-11T23:07:50.172Z,100175.45
2019-05-11T23:11:52.333Z,100185.63
2019-05-11T23:15:54.607Z,100189.75
2019-05-11T23:19:57.962Z,100185.27
2019-05-11T23:24:01.244Z,100182.97
2019-05-11T23:28:03.416Z,100185.14
2019-05-11T23:32:05.675Z,100189.35
2019-05-11T23:36:07.971Z,100190.20
2019-05-11T23:40:10.428Z,100195.05
2019-05-11T23:44:12.790Z,100188.98
2019-05-11T23:48:15.061Z,100184.30
2019-05-11T23:52:18.045Z,100186.20
2019-05-11T23:56:20.444Z,100194.53
